Time,TemperatureF,DewpointF,PressureIn,WindDirection,WindDirectionDegrees,WindSpeedMPH,WindSpeedGustMPH,Humidity,HourlyPrecipIn,Conditions,Clouds,dailyrainin,SolarRadiationWatts/m^2,SoftwareType,DateUTC
2013-09-07 00:04:00,80.1,45.0,29.92,SW,223,0.0,0.0,29,0.00,,,0.00,0.0,meteohub,2013-09-07 07:04:00,
2013-09-07 00:09:00,79.9,44.8,29.92,SW,223,0.0,0.0,29,0.00,,,0.00,0.0,meteohub,2013-09-07 07:09:00,
2013-09-07 00:14:00,79.7,45.5,29.92,SW,223,0.0,0.0,30,0.00,,,0.00,0.0,meteohub,2013-09-07 07:14:00,
2013-09-07 00:19:00,79.7,45.5,29.92,SW,223,0.0,0.0,30,0.00,,,0.00,0.0,meteohub,2013-09-07 07:19:00,
2013-09-07 00:24:00,79.5,45.3,29.91,SW,223,0.0,0.0,30,0.00,,,0.00,0.0,meteohub,2013-09-07 07:24:00,
2013-09-07 00:29:00,79.3,46.0,29.92,SW,223,1.0,0.0,31,0.00,,,0.00,0.0,meteohub,2013-09-07 07:29:00,
2013-09-07 00:34:00,79.2,45.9,29.92,SW,223,0.0,1.0,31,0.00,,,0.00,0.0,meteohub,2013-09-07 07:34:00,
2013-09-07 00:39:00,78.6,45.5,29.92,SW,224,0.0,1.0,31,0.00,,,0.00,0.0,meteohub,2013-09-07 07:39:00,
2013-09-07 00:44:00,78.3,45.1,29.92,SW,223,0.0,1.0,31,0.00,,,0.00,0.0,meteohub,2013-09-07 07:44:00,
2013-09-07 00:49:00,77.7,45.5,29.92,SW,223,0.0,0.0,32,0.00,,,0.00,0.0,meteohub,2013-09-07 07:49:00,
2013-09-07 00:54:00,77.5,46.2,29.92,SW,223,0.0,0.0,33,0.00,,,0.00,0.0,meteohub,2013-09-07 07:54:00,
2013-09-07 00:59:00,77.4,46.8,29.92,SW,223,0.0,0.0,34,0.00,,,0.00,0.0,meteohub,2013-09-07 07:59:00,
2013-09-07 01:04:00,77.2,46.6,29.92,SW,224,0.0,0.0,34,0.00,,,0.00,0.0,meteohub,2013-09-07 08:04:00,
2013-09-07 01:09:00,76.8,47.1,29.92,SW,223,0.0,0.0,35,0.00,,,0.00,0.0,meteohub,2013-09-07 08:09:00,
2013-09-07 01:14:00,76.6,46.2,29.92,SW,224,0.0,0.0,34,0.00,,,0.00,0.0,meteohub,2013-09-07 08:14:00,
2013-09-07 01:19:00,76.3,46.6,29.92,SW,223,0.0,0.0,35,0.00,,,0.00,0.0,meteohub,2013-09-07 08:19:00,
2013-09-07 01:24:00,75.7,45.3,29.92,SW,223,0.0,0.0,34,0.00,,,0.00,0.0,meteohub,2013-09-07 08:24:00,
2013-09-07 01:29:00,75.6,46.0,29.92,SW,223,0.0,0.0,35,0.00,,,0.00,0.0,meteohub,2013-09-07 08:29:00,
2013-09-07 01:34:00,75.4,46.6,29.92,SW,223,0.0,0.0,36,0.00,,,0.00,0.0,meteohub,2013-09-07 08:34:00,
2013-09-07 01:39:00,75.0,46.2,29.92,SW,223,0.0,0.0,36,0.00,,,0.00,0.0,meteohub,2013-09-07 08:39:00,
2013-09-07 01:44:00,74.7,45.9,29.92,SW,223,0.0,0.0,36,0.00,,,0.00,0.0,meteohub,2013-09-07 08:44:00,
2013-09-07 01:49:00,74.3,45.0,29.92,SW,223,0.0,0.0,35,0.00,,,0.00,0.0,meteohub,2013-09-07 08:49:00,
2013-09-07 01:54:00,73.9,44.6,29.92,SW,223,0.0,0.0,35,0.00,,,0.00,0.0,meteohub,2013-09-07 08:54:00,
2013-09-07 01:59:00,73.6,45.0,29.92,SW,224,0.0,0.0,36,0.00,,,0.00,0.0,meteohub,2013-09-07 08:59:00,
2013-09-07 02:04:00,73.4,45.5,29.92,SW,223,0.0,0.0,37,0.00,,,0.00,0.0,meteohub,2013-09-07 09:04:00,
2013-09-07 02:09:00,73.0,45.1,29.92,SW,223,0.0,0.0,37,0.00,,,0.00,0.0,meteohub,2013-09-07 09:09:00,
2013-09-07 02:14:00,73.0,45.1,29.91,SW,223,0.0,0.0,37,0.00,,,0.00,0.0,meteohub,2013-09-07 09:14:00,
2013-09-07 02:19:00,72.9,45.7,29.92,SW,223,0.0,0.0,38,0.00,,,0.00,0.0,meteohub,2013-09-07 09:19:00,
2013-09-07 02:24:00,72.7,46.2,29.91,SW,223,0.0,0.0,39,0.00,,,0.00,0.0,meteohub,2013-09-07 09:24:00,
2013-09-07 02:29:00,72.5,46.2,29.91,SW,223,0.0,0.0,39,0.00,,,0.00,0.0,meteohub,2013-09-07 09:29:00,
2013-09-07 02:34:00,72.1,46.4,29.91,SW,224,0.0,0.0,40,0.00,,,0.00,0.0,meteohub,2013-09-07 09:34:00,
2013-09-07 02:39:00,72.0,46.4,29.91,SW,223,0.0,0.0,40,0.00,,,0.00,0.0,meteohub,2013-09-07 09:39:00,
2013-09-07 02:44:00,72.0,46.4,29.91,SW,223,0.0,0.0,40,0.00,,,0.00,0.0,meteohub,2013-09-07 09:44:00,
2013-09-07 02:49:00,71.8,46.8,29.91,SW,223,0.0,0.0,41,0.00,,,0.00,0.0,meteohub,2013-09-07 09:49:00,
2013-09-07 02:54:00,71.4,47.1,29.91,SW,223,0.0,0.0,42,0.00,,,0.00,0.0,meteohub,2013-09-07 09:54:00,
2013-09-07 02:59:00,71.2,46.9,29.91,SW,223,0.0,0.0,42,0.00,,,0.00,0.0,meteohub,2013-09-07 09:59:00,
2013-09-07 03:04:00,71.1,46.8,29.91,SW,224,0.0,0.0,42,0.00,,,0.00,0.0,meteohub,2013-09-07 10:04:00,
2013-09-07 03:09:00,71.1,46.8,29.91,SW,223,0.0,0.0,42,0.00,,,0.00,0.0,meteohub,2013-09-07 10:09:00,
2013-09-07 03:14:00,71.1,46.8,29.91,SW,223,0.0,0.0,42,0.00,,,0.00,0.0,meteohub,2013-09-07 10:14:00,
2013-09-07 03:19:00,70.9,46.6,29.91,SW,223,0.0,0.0,42,0.00,,,0.00,0.0,meteohub,2013-09-07 10:19:00,
2013-09-07 03:24:00,70.9,46.0,29.91,SW,223,0.0,0.0,41,0.00,,,0.00,0.0,meteohub,2013-09-07 10:24:00,
2013-09-07 03:29:00,70.7,45.9,29.91,SW,223,0.0,0.0,41,0.00,,,0.00,0.0,meteohub,2013-09-07 10:29:00,
2013-09-07 03:34:00,70.5,47.5,29.91,SW,223,0.0,0.0,44,0.00,,,0.00,0.0,meteohub,2013-09-07 10:34:00,
2013-09-07 03:39:00,70.3,47.5,29.91,SW,224,0.0,0.0,44,0.00,,,0.00,0.0,meteohub,2013-09-07 10:39:00,
2013-09-07 03:44:00,70.3,47.5,29.91,SW,223,0.0,0.0,44,0.00,,,0.00,0.0,meteohub,2013-09-07 10:44:00,
2013-09-07 03:49:00,70.3,48.0,29.90,SW,223,0.0,0.0,45,0.00,,,0.00,0.0,meteohub,2013-09-07 10:49:00,
2013-09-07 03:54:00,70.2,48.4,29.91,SW,223,0.0,0.0,46,0.00,,,0.00,0.0,meteohub,2013-09-07 10:54:00,
2013-09-07 03:59:00,70.2,48.9,29.91,SW,223,0.0,0.0,47,0.00,,,0.00,0.0,meteohub,2013-09-07 10:59:00,
2013-09-07 04:05:00,70.0,48.7,29.91,SW,223,0.0,0.0,47,0.00,,,0.00,0.0,meteohub,2013-09-07 11:05:00,
2013-09-07 04:10:00,69.6,47.8,29.91,SW,223,0.0,0.0,46,0.00,,,0.00,0.0,meteohub,2013-09-07 11:10:00,
2013-09-07 04:15:00,69.4,47.8,29.91,SW,223,0.0,0.0,46,0.00,,,0.00,0.0,meteohub,2013-09-07 11:15:00,
2013-09-07 04:20:00,69.4,47.1,29.91,SW,223,0.0,0.0,45,0.00,,,0.00,0.0,meteohub,2013-09-07 11:20:00,
2013-09-07 04:25:00,69.4,48.4,29.91,SW,223,0.0,0.0,47,0.00,,,0.00,0.0,meteohub,2013-09-07 11:25:00,
2013-09-07 04:30:00,69.4,47.8,29.91,SW,223,0.0,0.0,46,0.00,,,0.00,0.0,meteohub,2013-09-07 11:30:00,
2013-09-07 04:35:00,69.3,47.7,29.91,SW,223,0.0,0.0,46,0.00,,,0.00,0.0,meteohub,2013-09-07 11:35:00,
2013-09-07 04:40:00,69.1,47.5,29.91,SW,224,0.0,1.0,46,0.00,,,0.00,0.0,meteohub,2013-09-07 11:40:00,
2013-09-07 04:45:00,69.1,47.5,29.91,SW,223,0.0,0.0,46,0.00,,,0.00,0.0,meteohub,2013-09-07 11:45:00,
2013-09-07 04:50:00,68.9,47.3,29.91,SW,223,0.0,0.0,46,0.00,,,0.00,0.0,meteohub,2013-09-07 11:50:00,
2013-09-07 04:55:00,68.7,47.1,29.91,SW,223,0.0,0.0,46,0.00,,,0.00,0.0,meteohub,2013-09-07 11:55:00,
2013-09-07 05:00:00,68.5,46.9,29.91,SW,223,0.0,0.0,46,0.00,,,0.00,0.0,meteohub,2013-09-07 12:00:00,
2013-09-07 05:05:00,68.5,46.9,29.91,SW,223,0.0,0.0,46,0.00,,,0.00,0.0,meteohub,2013-09-07 12:05:00,
2013-09-07 05:10:00,68.2,46.0,29.91,SW,223,0.0,0.0,45,0.00,,,0.00,0.0,meteohub,2013-09-07 12:10:00,
2013-09-07 05:15:00,67.5,43.5,29.91,SW,224,0.0,0.0,42,0.00,,,0.00,0.0,meteohub,2013-09-07 12:15:00,
2013-09-07 05:20:00,66.7,43.0,29.92,SW,223,0.0,1.0,42,0.00,,,0.00,0.0,meteohub,2013-09-07 12:20:00,
2013-09-07 05:25:00,66.0,41.7,29.92,SW,223,1.0,1.0,41,0.00,,,0.00,0.0,meteohub,2013-09-07 12:25:00,
2013-09-07 05:30:00,65.3,41.5,29.92,SW,223,0.0,1.0,42,0.00,,,0.00,0.0,meteohub,2013-09-07 12:30:00,
2013-09-07 05:35:00,64.9,42.4,29.92,SW,223,0.0,5.0,44,0.00,,,0.00,0.0,meteohub,2013-09-07 12:35:00,
2013-09-07 05:40:00,64.9,42.4,29.92,SW,224,0.0,5.0,44,0.00,,,0.00,0.0,meteohub,2013-09-07 12:40:00,
2013-09-07 05:45:00,64.8,43.5,29.92,SW,223,0.0,0.0,46,0.00,,,0.00,0.0,meteohub,2013-09-07 12:45:00,
2013-09-07 05:50:00,64.8,44.6,29.92,SW,223,0.0,0.0,48,0.00,,,0.00,0.0,meteohub,2013-09-07 12:50:00,
2013-09-07 05:55:00,64.8,45.1,29.92,SW,223,0.0,0.0,49,0.00,,,0.00,0.0,meteohub,2013-09-07 12:55:00,
2013-09-07 06:00:00,64.6,44.4,29.92,SW,223,0.0,0.0,48,0.00,,,0.00,0.0,meteohub,2013-09-07 13:00:00,
2013-09-07 06:05:00,64.6,44.4,29.92,SW,223,0.0,0.0,48,0.00,,,0.00,0.0,meteohub,2013-09-07 13:05:00,
2013-09-07 06:10:00,64.4,44.2,29.92,SW,223,0.0,0.0,48,0.00,,,0.00,0.0,meteohub,2013-09-07 13:10:00,
2013-09-07 06:15:00,64.4,44.8,29.93,SW,223,0.0,0.0,49,0.00,,,0.00,0.0,meteohub,2013-09-07 13:15:00,
2013-09-07 06:20:00,64.4,45.9,29.93,SW,223,0.0,0.0,51,0.00,,,0.00,0.0,meteohub,2013-09-07 13:20:00,
2013-09-07 06:25:00,64.2,45.7,29.93,SW,223,0.0,0.0,51,0.00,,,0.00,0.0,meteohub,2013-09-07 13:25:00,
2013-09-07 06:30:00,64.2,45.7,29.93,SW,223,0.0,0.0,51,0.00,,,0.00,0.0,meteohub,2013-09-07 13:30:00,
2013-09-07 06:35:00,64.2,45.7,29.93,SW,223,0.0,0.0,51,0.00,,,0.00,5.0,meteohub,2013-09-07 13:35:00,
2013-09-07 06:40:00,64.2,45.7,29.93,SW,223,0.0,0.0,51,0.00,,,0.00,7.0,meteohub,2013-09-07 13:40:00,
2013-09-07 06:45:00,64.2,47.3,29.94,SW,223,0.0,0.0,54,0.00,,,0.00,11.0,meteohub,2013-09-07 13:45:00,
2013-09-07 06:50:00,64.2,47.7,29.94,SW,223,0.0,0.0,55,0.00,,,0.00,14.0,meteohub,2013-09-07 13:50:00,
2013-09-07 06:55:00,64.2,47.7,29.94,SW,223,0.0,0.0,55,0.00,,,0.00,18.0,meteohub,2013-09-07 13:55:00,
2013-09-07 07:00:00,64.2,47.3,29.94,SW,223,0.0,0.0,54,0.00,,,0.00,23.0,meteohub,2013-09-07 14:00:00,
2013-09-07 07:05:00,64.6,47.5,29.94,SW,223,0.0,0.0,54,0.00,,,0.00,35.0,meteohub,2013-09-07 14:05:00,
2013-09-07 07:10:00,64.8,47.7,29.94,SW,223,0.0,0.0,54,0.00,,,0.00,46.0,meteohub,2013-09-07 14:10:00,
2013-09-07 07:16:00,64.9,47.8,29.94,SW,223,0.0,0.0,54,0.00,,,0.00,60.0,meteohub,2013-09-07 14:16:00,
2013-09-07 07:21:00,65.5,48.9,29.94,SW,223,0.0,0.0,55,0.00,,,0.00,74.0,meteohub,2013-09-07 14:21:00,
2013-09-07 07:26:00,65.8,48.7,29.95,SW,223,0.0,0.0,54,0.00,,,0.00,91.0,meteohub,2013-09-07 14:26:00,
2013-09-07 07:31:00,66.4,48.7,29.95,SW,223,0.0,0.0,53,0.00,,,0.00,105.0,meteohub,2013-09-07 14:31:00,
2013-09-07 07:36:00,66.7,49.1,29.95,SW,223,0.0,0.0,53,0.00,,,0.00,125.0,meteohub,2013-09-07 14:36:00,
2013-09-07 07:41:00,67.3,49.1,29.95,SW,223,0.0,0.0,52,0.00,,,0.00,146.0,meteohub,2013-09-07 14:41:00,
2013-09-07 07:46:00,67.8,50.0,29.95,SW,223,0.0,0.0,53,0.00,,,0.00,165.0,meteohub,2013-09-07 14:46:00,
2013-09-07 07:51:00,68.5,49.6,29.95,SW,223,0.0,0.0,51,0.00,,,0.00,188.0,meteohub,2013-09-07 14:51:00,
2013-09-07 07:56:00,69.3,50.9,29.95,SW,223,0.0,0.0,52,0.00,,,0.00,206.0,meteohub,2013-09-07 14:56:00,
2013-09-07 08:01:00,70.5,49.8,29.95,SW,223,0.0,0.0,48,0.00,,,0.00,223.0,meteohub,2013-09-07 15:01:00,
2013-09-07 08:06:00,71.4,48.9,29.95,SW,223,0.0,0.0,45,0.00,,,0.00,237.0,meteohub,2013-09-07 15:06:00,
2013-09-07 08:11:00,72.1,49.1,29.95,SW,223,0.0,0.0,44,0.00,,,0.00,255.0,meteohub,2013-09-07 15:11:00,
2013-09-07 08:16:00,72.7,48.2,29.95,SW,223,0.0,0.0,42,0.00,,,0.00,272.0,meteohub,2013-09-07 15:16:00,
2013-09-07 08:21:00,73.2,47.5,29.95,SW,223,0.0,0.0,40,0.00,,,0.00,290.0,meteohub,2013-09-07 15:21:00,
2013-09-07 08:26:00,73.8,49.3,29.95,SW,223,0.0,0.0,42,0.00,,,0.00,306.0,meteohub,2013-09-07 15:26:00,
2013-09-07 08:31:00,74.3,48.4,29.94,SW,223,0.0,0.0,40,0.00,,,0.00,323.0,meteohub,2013-09-07 15:31:00,
2013-09-07 08:36:00,74.8,48.9,29.95,SW,223,0.0,0.0,40,0.00,,,0.00,343.0,meteohub,2013-09-07 15:36:00,
2013-09-07 08:41:00,75.4,47.3,29.94,SW,223,0.0,0.0,37,0.00,,,0.00,360.0,meteohub,2013-09-07 15:41:00,
2013-09-07 08:46:00,76.1,47.1,29.95,SW,223,0.0,0.0,36,0.00,,,0.00,378.0,meteohub,2013-09-07 15:46:00,
2013-09-07 08:51:00,76.8,46.4,29.95,SW,223,0.0,0.0,34,0.00,,,0.00,394.0,meteohub,2013-09-07 15:51:00,
2013-09-07 08:56:00,77.5,45.3,29.95,SW,223,0.0,0.0,32,0.00,,,0.00,413.0,meteohub,2013-09-07 15:56:00,
2013-09-07 09:01:00,77.9,46.4,29.95,SW,223,0.0,0.0,33,0.00,,,0.00,432.0,meteohub,2013-09-07 16:01:00,
2013-09-07 09:06:00,78.4,46.2,29.95,SW,223,0.0,0.0,32,0.00,,,0.00,455.0,meteohub,2013-09-07 16:06:00,
2013-09-07 09:11:00,79.0,47.5,29.95,SW,223,0.0,0.0,33,0.00,,,0.00,482.0,meteohub,2013-09-07 16:11:00,
2013-09-07 09:16:00,79.3,47.7,29.95,SW,223,0.0,0.0,33,0.00,,,0.00,499.0,meteohub,2013-09-07 16:16:00,
2013-09-07 09:21:00,79.7,48.0,29.95,SW,223,0.0,1.0,33,0.00,,,0.00,385.0,meteohub,2013-09-07 16:21:00,
2013-09-07 09:26:00,80.2,46.0,29.96,SW,223,0.0,1.0,30,0.00,,,0.00,524.0,meteohub,2013-09-07 16:26:00,
2013-09-07 09:31:00,80.6,48.0,29.95,SW,223,0.0,1.0,32,0.00,,,0.00,531.0,meteohub,2013-09-07 16:31:00,
2013-09-07 09:36:00,81.0,46.6,29.96,SW,223,0.0,0.0,30,0.00,,,0.00,543.0,meteohub,2013-09-07 16:36:00,
2013-09-07 09:41:00,81.7,48.0,29.96,SW,223,0.0,0.0,31,0.00,,,0.00,557.0,meteohub,2013-09-07 16:41:00,
2013-09-07 09:46:00,82.2,47.7,29.96,SW,223,0.0,0.0,30,0.00,,,0.00,571.0,meteohub,2013-09-07 16:46:00,
2013-09-07 09:51:00,82.9,47.5,29.96,SW,223,0.0,0.0,29,0.00,,,0.00,587.0,meteohub,2013-09-07 16:51:00,
2013-09-07 09:56:00,83.5,49.6,29.95,SW,223,0.0,1.0,31,0.00,,,0.00,601.0,meteohub,2013-09-07 16:56:00,
2013-09-07 10:01:00,84.2,48.6,29.96,SW,223,0.0,1.0,29,0.00,,,0.00,615.0,meteohub,2013-09-07 17:01:00,
2013-09-07 10:06:00,84.9,50.0,29.96,SW,223,0.0,0.0,30,0.00,,,0.00,631.0,meteohub,2013-09-07 17:06:00,
2013-09-07 10:11:00,85.5,50.5,29.95,SW,223,0.0,0.0,30,0.00,,,0.00,645.0,meteohub,2013-09-07 17:11:00,
2013-09-07 10:16:00,86.2,49.3,29.95,SW,223,0.0,0.0,28,0.00,,,0.00,657.0,meteohub,2013-09-07 17:16:00,
2013-09-07 10:21:00,86.7,46.8,29.95,SW,223,0.0,0.0,25,0.00,,,0.00,673.0,meteohub,2013-09-07 17:21:00,
2013-09-07 10:26:00,87.6,48.6,29.95,SW,223,0.0,0.0,26,0.00,,,0.00,686.0,meteohub,2013-09-07 17:26:00,
2013-09-07 10:31:00,88.2,47.8,29.95,SW,223,0.0,0.0,25,0.00,,,0.00,698.0,meteohub,2013-09-07 17:31:00,
2013-09-07 10:36:00,88.9,49.6,29.94,SW,223,0.0,0.0,26,0.00,,,0.00,714.0,meteohub,2013-09-07 17:36:00,
2013-09-07 10:41:00,89.8,47.1,29.94,SW,223,0.0,0.0,23,0.00,,,0.00,724.0,meteohub,2013-09-07 17:41:00,
2013-09-07 10:46:00,90.3,46.4,29.94,SW,223,0.0,0.0,22,0.00,,,0.00,737.0,meteohub,2013-09-07 17:46:00,
2013-09-07 10:51:00,91.2,47.1,29.94,SW,223,0.0,0.0,22,0.00,,,0.00,749.0,meteohub,2013-09-07 17:51:00,
2013-09-07 10:56:00,91.6,48.6,29.94,SW,223,0.0,2.0,23,0.00,,,0.00,758.0,meteohub,2013-09-07 17:56:00,
2013-09-07 11:01:00,91.8,48.7,29.94,SW,223,0.0,2.0,23,0.00,,,0.00,768.0,meteohub,2013-09-07 18:01:00,
2013-09-07 11:07:00,92.5,48.0,29.94,SW,223,0.0,2.0,22,0.00,,,0.00,777.0,meteohub,2013-09-07 18:07:00,
2013-09-07 11:12:00,93.0,47.3,29.94,SW,223,0.0,1.0,21,0.00,,,0.00,788.0,meteohub,2013-09-07 18:12:00,
2013-09-07 11:17:00,93.4,45.0,29.94,SW,223,0.0,1.0,19,0.00,,,0.00,796.0,meteohub,2013-09-07 18:17:00,
2013-09-07 11:22:00,93.6,46.4,29.94,SW,223,0.0,1.0,20,0.00,,,0.00,805.0,meteohub,2013-09-07 18:22:00,
2013-09-07 11:27:00,93.6,46.4,29.94,SW,223,1.0,4.0,20,0.00,,,0.00,814.0,meteohub,2013-09-07 18:27:00,
2013-09-07 11:32:00,93.9,45.3,29.94,SW,223,1.0,4.0,19,0.00,,,0.00,826.0,meteohub,2013-09-07 18:32:00,
2013-09-07 11:37:00,94.3,50.7,29.94,SW,223,0.0,6.0,23,0.00,,,0.00,828.0,meteohub,2013-09-07 18:37:00,
2013-09-07 11:42:00,94.5,45.9,29.93,SW,223,0.0,5.0,19,0.00,,,0.00,835.0,meteohub,2013-09-07 18:42:00,
2013-09-07 11:47:00,95.2,46.4,29.93,SSW,196,4.0,5.0,19,0.00,,,0.00,842.0,meteohub,2013-09-07 18:47:00,
2013-09-07 11:52:00,95.2,46.4,29.93,South,189,0.0,5.0,19,0.00,,,0.00,847.0,meteohub,2013-09-07 18:52:00,
2013-09-07 11:57:00,95.5,48.0,29.93,East,99,4.0,7.0,20,0.00,,,0.00,854.0,meteohub,2013-09-07 18:57:00,
2013-09-07 12:02:00,95.5,46.8,29.92,ENE,59,0.0,7.0,19,0.00,,,0.00,860.0,meteohub,2013-09-07 19:02:00,
2013-09-07 12:07:00,95.5,49.5,29.92,ENE,67,0.0,7.0,21,0.00,,,0.00,868.0,meteohub,2013-09-07 19:07:00,
2013-09-07 12:12:00,96.1,47.1,29.92,ENE,69,0.0,7.0,19,0.00,,,0.00,872.0,meteohub,2013-09-07 19:12:00,
2013-09-07 12:17:00,96.1,47.1,29.91,ENE,69,2.0,7.0,19,0.00,,,0.00,875.0,meteohub,2013-09-07 19:17:00,
2013-09-07 12:22:00,96.6,46.2,29.91,SE,146,0.0,6.0,18,0.00,,,0.00,877.0,meteohub,2013-09-07 19:22:00,
2013-09-07 12:27:00,97.0,47.8,29.91,SE,146,1.0,6.0,19,0.00,,,0.00,884.0,meteohub,2013-09-07 19:27:00,
2013-09-07 12:32:00,96.6,47.7,29.91,SE,132,5.0,6.0,19,0.00,,,0.00,886.0,meteohub,2013-09-07 19:32:00,
2013-09-07 12:37:00,97.0,47.8,29.91,SE,133,1.0,9.0,19,0.00,,,0.00,888.0,meteohub,2013-09-07 19:37:00,
2013-09-07 12:42:00,97.3,46.8,29.91,SSW,211,3.0,9.0,18,0.00,,,0.00,889.0,meteohub,2013-09-07 19:42:00,
2013-09-07 12:47:00,97.3,46.8,29.91,SSW,212,2.0,10.0,18,0.00,,,0.00,891.0,meteohub,2013-09-07 19:47:00,
2013-09-07 12:52:00,97.5,48.4,29.91,SSE,161,5.0,10.0,19,0.00,,,0.00,893.0,meteohub,2013-09-07 19:52:00,
2013-09-07 12:57:00,97.3,46.8,29.90,SSE,155,4.0,8.0,18,0.00,,,0.00,891.0,meteohub,2013-09-07 19:57:00,
2013-09-07 13:02:00,97.3,48.2,29.90,SE,140,0.0,8.0,19,0.00,,,0.00,893.0,meteohub,2013-09-07 20:02:00,
2013-09-07 13:07:00,97.3,46.8,29.90,SW,225,3.0,8.0,18,0.00,,,0.00,891.0,meteohub,2013-09-07 20:07:00,
2013-09-07 13:12:00,97.9,48.6,29.89,SW,220,1.0,11.0,19,0.00,,,0.00,889.0,meteohub,2013-09-07 20:12:00,
2013-09-07 13:17:00,98.4,50.4,29.89,SSW,200,0.0,11.0,20,0.00,,,0.00,888.0,meteohub,2013-09-07 20:17:00,
2013-09-07 13:22:00,99.0,48.0,29.89,SSW,192,0.0,11.0,18,0.00,,,0.00,888.0,meteohub,2013-09-07 20:22:00,
2013-09-07 13:27:00,99.1,48.2,29.89,South,185,2.0,11.0,18,0.00,,,0.00,886.0,meteohub,2013-09-07 20:27:00,
2013-09-07 13:32:00,99.1,48.2,29.89,SSE,162,5.0,11.0,18,0.00,,,0.00,884.0,meteohub,2013-09-07 20:32:00,
2013-09-07 13:37:00,99.7,48.6,29.88,SE,128,3.0,8.0,18,0.00,,,0.00,877.0,meteohub,2013-09-07 20:37:00,
2013-09-07 13:42:00,99.3,48.4,29.88,SSE,153,0.0,9.0,18,0.00,,,0.00,875.0,meteohub,2013-09-07 20:42:00,
2013-09-07 13:47:00,99.0,48.0,29.88,SSE,158,2.0,9.0,18,0.00,,,0.00,872.0,meteohub,2013-09-07 20:47:00,
2013-09-07 13:52:00,99.1,46.8,29.87,SSE,148,1.0,9.0,17,0.00,,,0.00,868.0,meteohub,2013-09-07 20:52:00,
2013-09-07 13:57:00,99.3,48.4,29.87,SE,132,5.0,9.0,18,0.00,,,0.00,861.0,meteohub,2013-09-07 20:57:00,
2013-09-07 14:02:00,99.9,47.3,29.87,SE,142,9.0,9.0,17,0.00,,,0.00,858.0,meteohub,2013-09-07 21:02:00,
2013-09-07 14:07:00,99.7,50.0,29.87,ESE,113,9.0,12.0,19,0.00,,,0.00,851.0,meteohub,2013-09-07 21:07:00,
2013-09-07 14:12:00,99.5,50.0,29.87,ESE,115,0.0,10.0,19,0.00,,,0.00,846.0,meteohub,2013-09-07 21:12:00,
2013-09-07 14:17:00,100.0,48.9,29.86,ESE,121,8.0,9.0,18,0.00,,,0.00,842.0,meteohub,2013-09-07 21:17:00,
2013-09-07 14:23:00,100.2,50.5,29.86,SE,136,0.0,11.0,19,0.00,,,0.00,831.0,meteohub,2013-09-07 21:23:00,
2013-09-07 14:27:00,100.0,47.5,29.86,SW,225,5.0,11.0,17,0.00,,,0.00,824.0,meteohub,2013-09-07 21:27:00,
2013-09-07 14:32:00,99.3,45.1,29.86,SE,135,0.0,11.0,16,0.00,,,0.00,816.0,meteohub,2013-09-07 21:32:00,
2013-09-07 14:38:00,100.2,47.5,29.86,SE,125,4.0,10.0,17,0.00,,,0.00,809.0,meteohub,2013-09-07 21:38:00,
2013-09-07 14:43:00,100.6,47.8,29.85,SE,140,5.0,9.0,17,0.00,,,0.00,800.0,meteohub,2013-09-07 21:43:00,
2013-09-07 14:48:00,99.9,48.7,29.85,SSW,209,1.0,9.0,18,0.00,,,0.00,791.0,meteohub,2013-09-07 21:48:00,
2013-09-07 14:53:00,99.7,48.6,29.85,SW,226,4.0,11.0,18,0.00,,,0.00,779.0,meteohub,2013-09-07 21:53:00,
2013-09-07 14:58:00,100.0,47.5,29.84,SE,140,0.0,11.0,17,0.00,,,0.00,768.0,meteohub,2013-09-07 21:58:00,
2013-09-07 15:03:00,100.6,49.3,29.84,ESE,118,0.0,11.0,18,0.00,,,0.00,758.0,meteohub,2013-09-07 22:03:00,
2013-09-07 15:08:00,101.1,49.8,29.84,SE,144,0.0,10.0,18,0.00,,,0.00,745.0,meteohub,2013-09-07 22:08:00,
2013-09-07 15:13:00,100.6,47.8,29.84,South,188,4.0,9.0,17,0.00,,,0.00,737.0,meteohub,2013-09-07 22:13:00,
2013-09-07 15:18:00,99.9,48.7,29.84,South,169,4.0,9.0,18,0.00,,,0.00,726.0,meteohub,2013-09-07 22:18:00,
2013-09-07 15:23:00,99.3,48.4,29.84,SSE,148,5.0,9.0,18,0.00,,,0.00,714.0,meteohub,2013-09-07 22:23:00,
2013-09-07 15:28:00,99.7,48.6,29.83,SE,131,12.0,12.0,18,0.00,,,0.00,701.0,meteohub,2013-09-07 22:28:00,
2013-09-07 15:33:00,99.9,47.3,29.84,SW,232,6.0,9.0,17,0.00,,,0.00,689.0,meteohub,2013-09-07 22:33:00,
2013-09-07 15:38:00,99.7,48.6,29.84,SW,217,9.0,14.0,18,0.00,,,0.00,677.0,meteohub,2013-09-07 22:38:00,
2013-09-07 15:43:00,99.3,49.8,29.83,SW,221,2.0,20.0,19,0.00,,,0.00,663.0,meteohub,2013-09-07 22:43:00,
2013-09-07 15:48:00,99.1,51.1,29.83,SW,229,5.0,20.0,20,0.00,,,0.00,649.0,meteohub,2013-09-07 22:48:00,
2013-09-07 15:53:00,99.1,49.6,29.83,SW,229,2.0,20.0,19,0.00,,,0.00,636.0,meteohub,2013-09-07 22:53:00,
2013-09-07 15:58:00,99.3,49.8,29.83,South,174,0.0,20.0,19,0.00,,,0.00,624.0,meteohub,2013-09-07 22:58:00,
2013-09-07 16:03:00,99.5,50.0,29.83,South,183,4.0,20.0,19,0.00,,,0.00,608.0,meteohub,2013-09-07 23:03:00,
2013-09-07 16:08:00,99.3,49.8,29.83,SW,223,5.0,10.0,19,0.00,,,0.00,592.0,meteohub,2013-09-07 23:08:00,
2013-09-07 16:13:00,99.5,48.6,29.83,SW,235,9.0,10.0,18,0.00,,,0.00,578.0,meteohub,2013-09-07 23:13:00,
2013-09-07 16:18:00,99.1,48.2,29.82,SW,225,2.0,13.0,18,0.00,,,0.00,563.0,meteohub,2013-09-07 23:18:00,
2013-09-07 16:23:00,99.1,48.2,29.82,SSW,211,2.0,13.0,18,0.00,,,0.00,548.0,meteohub,2013-09-07 23:23:00,
2013-09-07 16:28:00,99.1,49.6,29.82,SW,229,4.0,13.0,19,0.00,,,0.00,534.0,meteohub,2013-09-07 23:28:00,
2013-09-07 16:33:00,99.0,49.5,29.82,SW,219,7.0,13.0,19,0.00,,,0.00,519.0,meteohub,2013-09-07 23:33:00,
2013-09-07 16:38:00,99.0,48.0,29.82,SW,220,6.0,13.0,18,0.00,,,0.00,503.0,meteohub,2013-09-07 23:38:00,
2013-09-07 16:43:00,98.4,49.1,29.83,South,191,7.0,14.0,19,0.00,,,0.00,485.0,meteohub,2013-09-07 23:43:00,
2013-09-07 16:48:00,98.1,48.7,29.83,SW,217,7.0,14.0,19,0.00,,,0.00,468.0,meteohub,2013-09-07 23:48:00,
2013-09-07 16:53:00,97.5,49.6,29.83,SW,230,13.0,19.0,20,0.00,,,0.00,452.0,meteohub,2013-09-07 23:53:00,
2013-09-07 16:58:00,97.3,48.2,29.83,SW,225,6.0,19.0,19,0.00,,,0.00,432.0,meteohub,2013-09-07 23:58:00,
2013-09-07 17:03:00,97.3,48.2,29.83,SW,229,11.0,19.0,19,0.00,,,0.00,417.0,meteohub,2013-09-08 00:03:00,
2013-09-07 17:08:00,97.2,49.5,29.83,SSW,200,4.0,19.0,20,0.00,,,0.00,399.0,meteohub,2013-09-08 00:08:00,
2013-09-07 17:13:00,96.6,47.7,29.83,SW,227,7.0,16.0,19,0.00,,,0.00,385.0,meteohub,2013-09-08 00:13:00,
2013-09-07 17:18:00,96.6,48.9,29.83,SW,225,4.0,16.0,20,0.00,,,0.00,367.0,meteohub,2013-09-08 00:18:00,
2013-09-07 17:23:00,96.4,47.5,29.83,SW,220,9.0,16.0,19,0.00,,,0.00,350.0,meteohub,2013-09-08 00:23:00,
2013-09-07 17:28:00,96.1,47.1,29.83,SSW,207,12.0,16.0,19,0.00,,,0.00,332.0,meteohub,2013-09-08 00:28:00,
2013-09-07 17:33:00,95.7,48.2,29.83,SW,232,16.0,16.0,20,0.00,,,0.00,315.0,meteohub,2013-09-08 00:33:00,
2013-09-07 17:38:00,95.5,48.0,29.83,SW,225,5.0,20.0,20,0.00,,,0.00,295.0,meteohub,2013-09-08 00:38:00,
2013-09-07 17:43:00,95.2,47.8,29.83,SW,223,4.0,21.0,20,0.00,,,0.00,276.0,meteohub,2013-09-08 00:43:00,
2013-09-07 17:48:00,94.8,47.5,29.83,SSW,204,9.0,21.0,20,0.00,,,0.00,258.0,meteohub,2013-09-08 00:48:00,
2013-09-07 17:53:00,94.6,47.3,29.83,SW,221,12.0,20.0,20,0.00,,,0.00,241.0,meteohub,2013-09-08 00:53:00,
2013-09-07 17:58:00,94.5,47.1,29.83,SSW,209,6.0,20.0,20,0.00,,,0.00,220.0,meteohub,2013-09-08 00:58:00,
2013-09-07 18:03:00,94.3,45.7,29.83,WSW,245,13.0,20.0,19,0.00,,,0.00,199.0,meteohub,2013-09-08 01:03:00,
2013-09-07 18:08:00,93.7,45.3,29.83,SW,220,10.0,16.0,19,0.00,,,0.00,176.0,meteohub,2013-09-08 01:08:00,
2013-09-07 18:13:00,93.6,45.1,29.83,SW,219,5.0,22.0,19,0.00,,,0.00,155.0,meteohub,2013-09-08 01:13:00,
2013-09-07 18:18:00,93.0,44.6,29.83,SW,220,11.0,22.0,19,0.00,,,0.00,132.0,meteohub,2013-09-08 01:18:00,
2013-09-07 18:23:00,92.8,44.6,29.84,SW,217,8.0,22.0,19,0.00,,,0.00,111.0,meteohub,2013-09-08 01:23:00,
2013-09-07 18:28:00,92.3,44.1,29.83,SW,218,5.0,20.0,19,0.00,,,0.00,90.0,meteohub,2013-09-08 01:28:00,
2013-09-07 18:34:00,91.9,43.7,29.83,SSW,213,4.0,20.0,19,0.00,,,0.00,74.0,meteohub,2013-09-08 01:34:00,
2013-09-07 18:39:00,91.6,43.5,29.84,SSW,195,7.0,20.0,19,0.00,,,0.00,56.0,meteohub,2013-09-08 01:39:00,
2013-09-07 18:44:00,90.9,43.0,29.84,SW,217,18.0,21.0,19,0.00,,,0.00,42.0,meteohub,2013-09-08 01:44:00,
2013-09-07 18:49:00,90.5,42.6,29.84,SSW,196,4.0,21.0,19,0.00,,,0.00,30.0,meteohub,2013-09-08 01:49:00,
2013-09-07 18:54:00,90.1,43.7,29.84,SW,220,11.0,21.0,20,0.00,,,0.00,19.0,meteohub,2013-09-08 01:54:00,
2013-09-07 18:59:00,89.8,42.1,29.84,SW,221,13.0,20.0,19,0.00,,,0.00,11.0,meteohub,2013-09-08 01:59:00,
2013-09-07 19:04:00,89.4,41.7,29.84,SW,225,12.0,20.0,19,0.00,,,0.00,7.0,meteohub,2013-09-08 02:04:00,
2013-09-07 19:09:00,89.2,43.0,29.85,SW,217,5.0,20.0,20,0.00,,,0.00,5.0,meteohub,2013-09-08 02:09:00,
2013-09-07 19:14:00,88.9,42.6,29.85,SW,219,6.0,16.0,20,0.00,,,0.00,0.0,meteohub,2013-09-08 02:14:00,
2013-09-07 19:19:00,88.5,42.3,29.85,SW,222,4.0,16.0,20,0.00,,,0.00,0.0,meteohub,2013-09-08 02:19:00,
2013-09-07 19:24:00,88.2,42.1,29.85,SSW,205,7.0,16.0,20,0.00,,,0.00,0.0,meteohub,2013-09-08 02:24:00,
2013-09-07 19:29:00,88.0,41.9,29.85,SW,223,5.0,14.0,20,0.00,,,0.00,0.0,meteohub,2013-09-08 02:29:00,
2013-09-07 19:34:00,87.6,41.5,29.85,SW,222,4.0,14.0,20,0.00,,,0.00,0.0,meteohub,2013-09-08 02:34:00,
2013-09-07 19:39:00,87.4,42.8,29.86,SSW,209,5.0,14.0,21,0.00,,,0.00,0.0,meteohub,2013-09-08 02:39:00,
2013-09-07 19:44:00,87.3,42.6,29.86,SW,221,2.0,14.0,21,0.00,,,0.00,0.0,meteohub,2013-09-08 02:44:00,
2013-09-07 19:49:00,86.9,42.3,29.86,South,188,7.0,14.0,21,0.00,,,0.00,0.0,meteohub,2013-09-08 02:49:00,
2013-09-07 19:54:00,86.7,42.1,29.86,SW,216,2.0,12.0,21,0.00,,,0.00,0.0,meteohub,2013-09-08 02:54:00,
2013-09-07 19:59:00,86.5,41.9,29.86,SW,219,6.0,12.0,21,0.00,,,0.00,0.0,meteohub,2013-09-08 02:59:00,
2013-09-07 20:04:00,86.2,41.7,29.86,SSW,209,5.0,12.0,21,0.00,,,0.00,0.0,meteohub,2013-09-08 03:04:00,
2013-09-07 20:09:00,86.0,42.8,29.87,SSW,211,2.0,15.0,22,0.00,,,0.00,0.0,meteohub,2013-09-08 03:09:00,
2013-09-07 20:14:00,85.6,42.4,29.87,SSW,213,1.0,15.0,22,0.00,,,0.00,0.0,meteohub,2013-09-08 03:14:00,
2013-09-07 20:19:00,85.5,42.3,29.87,South,172,2.0,15.0,22,0.00,,,0.00,0.0,meteohub,2013-09-08 03:19:00,
2013-09-07 20:24:00,85.3,42.1,29.88,South,184,4.0,9.0,22,0.00,,,0.00,0.0,meteohub,2013-09-08 03:24:00,
2013-09-07 20:29:00,84.9,41.9,29.88,South,176,7.0,9.0,22,0.00,,,0.00,0.0,meteohub,2013-09-08 03:29:00,
2013-09-07 20:34:00,84.9,41.9,29.88,SSW,192,5.0,9.0,22,0.00,,,0.00,0.0,meteohub,2013-09-08 03:34:00,
2013-09-07 20:39:00,84.7,41.7,29.88,SSW,193,2.0,9.0,22,0.00,,,0.00,0.0,meteohub,2013-09-08 03:39:00,
2013-09-07 20:44:00,84.6,41.5,29.88,SSW,194,0.0,7.0,22,0.00,,,0.00,0.0,meteohub,2013-09-08 03:44:00,
2013-09-07 20:49:00,84.4,41.4,29.88,SSW,198,2.0,7.0,22,0.00,,,0.00,0.0,meteohub,2013-09-08 03:49:00,
2013-09-07 20:54:00,84.4,41.4,29.88,SSW,199,0.0,7.0,22,0.00,,,0.00,0.0,meteohub,2013-09-08 03:54:00,
2013-09-07 20:59:00,84.2,42.4,29.88,SSW,192,6.0,7.0,23,0.00,,,0.00,0.0,meteohub,2013-09-08 03:59:00,
2013-09-07 21:01:00,84.2,41.2,29.88,South,183,4.0,7.0,22,0.00,,,0.00,0.0,meteohub,2013-09-08 04:01:00,
2013-09-07 21:02:00,84.2,41.2,29.88,South,183,3.0,7.0,22,0.00,,,0.00,0.0,meteohub,2013-09-08 04:02:00,
2013-09-07 21:05:00,84.2,41.2,29.89,South,183,2.0,7.0,22,0.00,,,0.00,0.0,meteohub,2013-09-08 04:05:00,
2013-09-07 21:10:00,84.0,41.0,29.89,SSW,201,6.0,8.0,22,0.00,,,0.00,0.0,meteohub,2013-09-08 04:10:00,
2013-09-07 21:15:00,84.0,42.3,29.89,SSW,202,1.0,9.0,23,0.00,,,0.00,0.0,meteohub,2013-09-08 04:15:00,
2013-09-07 21:20:00,83.8,41.0,29.89,SSW,204,4.0,9.0,22,0.00,,,0.00,0.0,meteohub,2013-09-08 04:20:00,
2013-09-07 21:25:00,83.8,41.0,29.89,SSW,205,4.0,9.0,22,0.00,,,0.00,0.0,meteohub,2013-09-08 04:25:00,
2013-09-07 21:30:00,83.7,41.9,29.89,SSW,205,1.0,9.0,23,0.00,,,0.00,0.0,meteohub,2013-09-08 04:30:00,
2013-09-07 21:35:00,83.7,40.8,29.89,SSW,205,2.0,9.0,22,0.00,,,0.00,0.0,meteohub,2013-09-08 04:35:00,
2013-09-07 21:40:00,83.5,40.6,29.89,SSW,205,0.0,6.0,22,0.00,,,0.00,0.0,meteohub,2013-09-08 04:40:00,
2013-09-07 21:45:00,83.5,41.7,29.90,SSW,205,0.0,6.0,23,0.00,,,0.00,0.0,meteohub,2013-09-08 04:45:00,
2013-09-07 21:50:00,83.3,41.7,29.90,SSW,207,2.0,6.0,23,0.00,,,0.00,0.0,meteohub,2013-09-08 04:50:00,
2013-09-07 21:55:00,83.1,41.5,29.90,SSW,207,0.0,9.0,23,0.00,,,0.00,0.0,meteohub,2013-09-08 04:55:00,
2013-09-07 22:00:00,83.1,41.5,29.90,SSW,208,1.0,9.0,23,0.00,,,0.00,0.0,meteohub,2013-09-08 05:00:00,
2013-09-07 22:05:00,83.1,41.5,29.90,SSW,207,0.0,9.0,23,0.00,,,0.00,0.0,meteohub,2013-09-08 05:05:00,
2013-09-07 22:10:00,83.1,41.5,29.90,SSW,207,0.0,6.0,23,0.00,,,0.00,0.0,meteohub,2013-09-08 05:10:00,
2013-09-07 22:15:00,82.9,41.4,29.90,SSW,205,0.0,5.0,23,0.00,,,0.00,0.0,meteohub,2013-09-08 05:15:00,
2013-09-07 22:20:00,82.9,41.4,29.90,SSW,205,1.0,6.0,23,0.00,,,0.00,0.0,meteohub,2013-09-08 05:20:00,
2013-09-07 22:25:00,82.8,42.3,29.90,SSW,205,1.0,6.0,24,0.00,,,0.00,0.0,meteohub,2013-09-08 05:25:00,
2013-09-07 22:30:00,82.8,42.3,29.90,SSW,205,0.0,6.0,24,0.00,,,0.00,0.0,meteohub,2013-09-08 05:30:00,
2013-09-07 22:35:00,82.6,42.1,29.90,SSW,206,1.0,4.0,24,0.00,,,0.00,0.0,meteohub,2013-09-08 05:35:00,
2013-09-07 22:40:00,82.6,42.1,29.90,SSW,206,0.0,4.0,24,0.00,,,0.00,0.0,meteohub,2013-09-08 05:40:00,
2013-09-07 22:45:00,82.2,41.9,29.90,SSW,206,0.0,8.0,24,0.00,,,0.00,0.0,meteohub,2013-09-08 05:45:00,
2013-09-07 22:50:00,82.0,42.8,29.90,SSW,206,0.0,8.0,25,0.00,,,0.00,0.0,meteohub,2013-09-08 05:50:00,
2013-09-07 22:56:00,81.9,42.6,29.90,SSW,207,0.0,5.0,25,0.00,,,0.00,0.0,meteohub,2013-09-08 05:56:00,
2013-09-07 23:01:00,81.9,42.6,29.89,SSW,206,0.0,5.0,25,0.00,,,0.00,0.0,meteohub,2013-09-08 06:01:00,
2013-09-07 23:06:00,81.7,42.4,29.89,SSW,206,0.0,5.0,25,0.00,,,0.00,0.0,meteohub,2013-09-08 06:06:00,
2013-09-07 23:11:00,81.5,43.3,29.90,SSW,207,0.0,4.0,26,0.00,,,0.00,0.0,meteohub,2013-09-08 06:11:00,
2013-09-07 23:16:00,81.3,43.2,29.89,SSW,206,0.0,4.0,26,0.00,,,0.00,0.0,meteohub,2013-09-08 06:16:00,
2013-09-07 23:21:00,81.1,43.0,29.89,SSW,206,3.0,3.0,26,0.00,,,0.00,0.0,meteohub,2013-09-08 06:21:00,
2013-09-07 23:26:00,81.0,42.8,29.89,SSW,206,0.0,4.0,26,0.00,,,0.00,0.0,meteohub,2013-09-08 06:26:00,
2013-09-07 23:31:00,81.0,42.8,29.89,SSW,207,0.0,4.0,26,0.00,,,0.00,0.0,meteohub,2013-09-08 06:31:00,
2013-09-07 23:36:00,80.8,42.6,29.89,SSW,207,0.0,4.0,26,0.00,,,0.00,0.0,meteohub,2013-09-08 06:36:00,
2013-09-07 23:41:00,80.4,42.4,29.89,SSW,207,0.0,4.0,26,0.00,,,0.00,0.0,meteohub,2013-09-08 06:41:00,
2013-09-07 23:46:00,80.4,43.3,29.89,SSW,206,0.0,1.0,27,0.00,,,0.00,0.0,meteohub,2013-09-08 06:46:00,
2013-09-07 23:51:00,80.2,43.2,29.89,SSW,206,0.0,1.0,27,0.00,,,0.00,0.0,meteohub,2013-09-08 06:51:00,
2013-09-07 23:56:00,80.2,43.2,29.89,SSW,206,0.0,4.0,27,0.00,,,0.00,0.0,meteohub,2013-09-08 06:56:00,